createdAt,value
2018-10-12T00:00:56.066Z,0.00
2018-10-12T00:01:56.349Z,0.00
2018-10-12T00:02:56.995Z,0.00
2018-10-12T00:03:56.816Z,0.00
2018-10-12T00:04:58.122Z,0.00
2018-10-12T00:05:57.414Z,0.00
2018-10-12T00:06:57.713Z,0.00
2018-10-12T00:07:58.024Z,0.00
2018-10-12T00:08:58.321Z,0.00
2018-10-12T00:09:58.647Z,0.00
2018-10-12T00:10:58.929Z,0.00
2018-10-12T00:11:59.214Z,0.00
2018-10-12T00:12:59.794Z,0.00
2018-10-12T00:13:59.599Z,0.00
2018-10-12T00:14:59.896Z,0.00
2018-10-12T00:16:00.226Z,0.00
2018-10-12T00:17:00.529Z,0.00
2018-10-12T00:18:00.812Z,0.00
2018-10-12T00:19:01.113Z,0.00
2018-10-12T00:20:01.438Z,0.00
2018-10-12T00:21:01.421Z,0.00
2018-10-12T00:22:02.007Z,0.00
2018-10-12T00:23:02.135Z,0.00
2018-10-12T00:24:02.244Z,0.00
2018-10-12T00:25:02.344Z,0.00
2018-10-12T00:26:02.363Z,0.00
2018-10-12T00:27:02.250Z,0.00
2018-10-12T00:28:02.720Z,0.00
2018-10-12T00:29:03.250Z,0.00
2018-10-12T00:30:03.721Z,0.00
2018-10-12T00:31:03.934Z,0.00
2018-10-12T00:32:04.109Z,0.00
2018-10-12T00:33:04.240Z,0.00
2018-10-12T00:34:04.382Z,0.00
2018-10-12T00:35:04.591Z,0.00
2018-10-12T00:36:04.718Z,0.00
2018-10-12T00:37:04.843Z,0.00
2018-10-12T00:38:04.960Z,0.00
2018-10-12T00:39:05.093Z,0.00
2018-10-12T00:40:05.250Z,0.00
2018-10-12T00:41:05.305Z,0.00
2018-10-12T00:42:05.456Z,0.00
2018-10-12T00:43:05.576Z,0.00
2018-10-12T00:44:05.716Z,0.00
2018-10-12T00:45:05.889Z,0.00
2018-10-12T00:46:06.044Z,0.00
2018-10-12T00:47:06.116Z,0.00
2018-10-12T00:48:06.170Z,0.00
2018-10-12T00:49:06.231Z,0.00
2018-10-12T00:50:06.320Z,0.00
2018-10-12T00:51:06.409Z,0.00
2018-10-12T00:52:06.464Z,0.00
2018-10-12T00:53:06.566Z,0.00
2018-10-12T00:54:06.694Z,0.00
2018-10-12T00:55:06.777Z,0.00
2018-10-12T00:56:06.972Z,0.00
2018-10-12T00:57:07.187Z,0.00
2018-10-12T00:58:07.278Z,0.00
2018-10-12T00:59:07.341Z,0.00
2018-10-12T01:00:07.414Z,0.00
2018-10-12T01:01:07.718Z,0.00
2018-10-12T01:02:07.610Z,0.00
2018-10-12T01:03:08.169Z,0.00
2018-10-12T01:04:08.254Z,0.00
2018-10-12T01:05:08.344Z,0.00
2018-10-12T01:06:08.425Z,0.00
2018-10-12T01:07:08.499Z,0.00
2018-10-12T01:08:08.738Z,0.00
2018-10-12T01:09:08.849Z,0.00
2018-10-12T01:10:08.933Z,0.00
2018-10-12T01:11:09.041Z,0.00
2018-10-12T01:12:09.143Z,0.00
2018-10-12T01:13:09.196Z,0.00
2018-10-12T01:14:09.469Z,0.00
2018-10-12T01:15:09.720Z,0.00
2018-10-12T01:16:10.010Z,0.00
2018-10-12T01:17:10.267Z,0.00
2018-10-12T01:18:10.518Z,0.00
2018-10-12T01:19:10.784Z,0.00
2018-10-12T01:20:11.326Z,0.00
2018-10-12T01:21:11.162Z,0.00
2018-10-12T01:22:11.427Z,0.00
2018-10-12T01:23:11.760Z,0.00
2018-10-12T01:24:12.035Z,0.00
2018-10-12T01:25:12.307Z,0.00
2018-10-12T01:26:12.592Z,0.00
2018-10-12T01:27:12.876Z,0.00
2018-10-12T01:28:13.157Z,0.00
2018-10-12T01:29:13.416Z,0.00
2018-10-12T01:30:13.678Z,0.00
2018-10-12T01:31:13.986Z,0.00
2018-10-12T01:32:14.418Z,0.00
2018-10-12T01:33:14.840Z,0.00
2018-10-12T01:34:15.118Z,0.00
2018-10-12T01:35:15.718Z,0.00
2018-10-12T01:36:15.517Z,0.00
2018-10-12T01:37:15.777Z,0.00
2018-10-12T01:38:16.170Z,0.00
2018-10-12T01:39:16.435Z,0.00
2018-10-12T01:40:17.059Z,0.00
2018-10-12T01:41:16.836Z,0.00
2018-10-12T01:42:17.115Z,0.00
2018-10-12T01:43:17.390Z,0.00
2018-10-12T01:44:17.663Z,0.00
2018-10-12T01:45:18.054Z,0.00
2018-10-12T01:46:18.697Z,0.00
2018-10-12T01:47:18.852Z,0.00
2018-10-12T01:48:18.915Z,0.00
2018-10-12T01:49:19.046Z,0.00
2018-10-12T01:50:19.131Z,0.00
2018-10-12T01:51:19.304Z,0.00
2018-10-12T01:52:19.428Z,0.00
2018-10-12T01:53:19.542Z,0.00
2018-10-12T01:54:19.666Z,0.00
2018-10-12T01:55:19.778Z,0.00
2018-10-12T01:56:19.976Z,0.00
2018-10-12T01:57:20.099Z,0.00
2018-10-12T01:58:20.281Z,0.00
2018-10-12T01:59:20.392Z,0.00
2018-10-12T02:00:20.504Z,0.00
2018-10-12T02:01:20.660Z,0.00
2018-10-12T02:02:20.762Z,0.00
2018-10-12T02:03:20.913Z,0.00
2018-10-12T02:04:21.049Z,0.00
2018-10-12T02:05:21.109Z,0.00
2018-10-12T02:06:21.173Z,0.00
2018-10-12T02:07:21.284Z,0.00
2018-10-12T02:08:21.376Z,0.00
2018-10-12T02:09:21.456Z,0.00
2018-10-12T02:10:21.514Z,0.00
2018-10-12T02:11:21.568Z,0.00
2018-10-12T02:12:21.641Z,0.00
2018-10-12T02:13:21.768Z,0.00
2018-10-12T02:14:21.826Z,0.00
2018-10-12T02:15:21.941Z,0.00
2018-10-12T02:16:22.065Z,0.00
2018-10-12T02:17:22.160Z,0.00
2018-10-12T02:18:22.430Z,0.00
2018-10-12T02:19:22.375Z,0.00
2018-10-12T02:20:22.471Z,0.00
2018-10-12T02:21:22.536Z,0.00
2018-10-12T02:22:22.594Z,0.00
2018-10-12T02:23:25.156Z,0.00
2018-10-12T02:24:22.780Z,0.00
2018-10-12T02:25:22.885Z,0.00
2018-10-12T02:26:25.460Z,0.00
2018-10-12T02:28:23.416Z,0.00
2018-10-12T02:29:23.685Z,0.00
2018-10-12T02:30:23.792Z,0.00
2018-10-12T02:31:23.872Z,0.00
2018-10-12T02:32:23.949Z,0.00
2018-10-12T02:33:24.035Z,0.00
2018-10-12T02:34:24.105Z,0.00
2018-10-12T02:35:24.084Z,0.00
2018-10-12T02:36:24.343Z,0.00
2018-10-12T02:37:24.606Z,0.00
2018-10-12T02:38:24.904Z,0.00
2018-10-12T02:39:24.875Z,0.00
2018-10-12T02:40:25.140Z,0.00
2018-10-12T02:41:25.399Z,0.00
2018-10-12T02:42:25.974Z,0.00
2018-10-12T02:43:25.728Z,0.00
2018-10-12T02:44:25.992Z,0.00
2018-10-12T02:45:26.243Z,0.00
2018-10-12T02:46:26.513Z,0.00
2018-10-12T02:47:26.775Z,0.00
2018-10-12T02:48:27.022Z,0.00
2018-10-12T02:49:27.345Z,0.00
2018-10-12T02:50:27.610Z,0.00
2018-10-12T02:51:27.874Z,0.00
2018-10-12T02:52:28.186Z,0.00
2018-10-12T02:53:28.447Z,0.00
2018-10-12T02:54:28.716Z,0.00
2018-10-12T02:55:28.975Z,0.00
2018-10-12T02:56:29.243Z,0.00
2018-10-12T02:57:29.507Z,0.00
2018-10-12T02:58:29.756Z,0.00
2018-10-12T02:59:30.028Z,0.00
2018-10-12T03:00:30.288Z,0.00
2018-10-12T03:01:30.589Z,0.00
2018-10-12T03:02:30.954Z,0.00
2018-10-12T03:03:31.222Z,0.00
2018-10-12T03:04:31.680Z,0.00
2018-10-12T03:05:32.005Z,0.00
2018-10-12T03:07:32.284Z,0.00
2018-10-12T03:08:32.534Z,0.00
2018-10-12T03:09:32.587Z,0.00
2018-10-12T03:10:32.860Z,0.00
2018-10-12T03:11:33.402Z,0.00
2018-10-12T03:12:33.468Z,0.00
2018-10-12T03:13:33.609Z,0.00
2018-10-12T03:14:33.678Z,0.00
2018-10-12T03:15:33.738Z,0.00
2018-10-12T03:17:33.904Z,0.00
2018-10-12T03:18:34.018Z,0.00
2018-10-12T03:19:34.138Z,0.00
2018-10-12T03:20:34.273Z,0.00
2018-10-12T03:21:34.452Z,0.00
2018-10-12T03:22:34.593Z,0.00
2018-10-12T03:23:41.266Z,0.00
2018-10-12T03:24:47.158Z,0.00
2018-10-12T03:25:35.336Z,0.00
2018-10-12T03:26:35.500Z,0.00
2018-10-12T03:27:35.619Z,0.00
2018-10-12T03:28:36.041Z,0.00
2018-10-12T03:29:36.388Z,0.00
2018-10-12T03:30:36.475Z,0.00
2018-10-12T03:31:36.324Z,0.00
2018-10-12T03:32:36.937Z,0.00
2018-10-12T03:33:36.976Z,0.00
2018-10-12T03:34:37.091Z,0.00
2018-10-12T03:35:37.115Z,0.00
2018-10-12T03:36:37.197Z,0.00
2018-10-12T03:37:37.271Z,0.00
2018-10-12T03:38:37.343Z,0.00
2018-10-12T03:39:37.442Z,0.00
2018-10-12T03:40:37.505Z,0.00
2018-10-12T03:41:37.576Z,0.00
2018-10-12T03:42:37.650Z,0.00
2018-10-12T03:43:37.875Z,0.00
2018-10-12T03:44:37.967Z,0.00
2018-10-12T03:45:37.995Z,0.00
2018-10-12T03:46:38.110Z,0.00
2018-10-12T03:47:38.175Z,0.00
2018-10-12T03:48:38.243Z,0.00
2018-10-12T03:49:38.302Z,0.00
2018-10-12T03:50:38.388Z,0.00
2018-10-12T03:51:38.603Z,0.00
2018-10-12T03:52:38.672Z,0.00
2018-10-12T03:53:38.761Z,0.00
2018-10-12T03:54:38.919Z,0.00
2018-10-12T03:55:38.992Z,0.00
2018-10-12T03:56:39.118Z,0.00
2018-10-12T03:57:39.242Z,0.00
2018-10-12T03:58:39.159Z,0.00
2018-10-12T03:59:39.581Z,0.00
2018-10-12T04:00:39.833Z,0.00
2018-10-12T04:01:40.107Z,0.00
2018-10-12T04:02:40.392Z,0.00
2018-10-12T04:03:40.631Z,0.00
2018-10-12T04:04:41.078Z,0.00
2018-10-12T04:05:41.426Z,0.00
2018-10-12T04:06:41.934Z,0.00
2018-10-12T04:07:41.733Z,0.00
2018-10-12T04:08:42.114Z,0.00
2018-10-12T04:09:42.682Z,0.00
2018-10-12T04:10:42.515Z,0.00
2018-10-12T04:11:42.786Z,0.00
2018-10-12T04:12:43.221Z,0.00
2018-10-12T04:13:43.350Z,0.00
2018-10-12T04:14:43.617Z,0.00
2018-10-12T04:15:43.917Z,0.00
2018-10-12T04:16:44.455Z,0.00
2018-10-12T04:17:44.220Z,0.00
2018-10-12T04:18:44.716Z,0.00
2018-10-12T04:19:45.203Z,0.00
2018-10-12T04:20:44.990Z,0.00
2018-10-12T04:21:45.267Z,0.00
2018-10-12T04:22:45.520Z,0.00
2018-10-12T04:23:45.832Z,0.00
2018-10-12T04:24:46.098Z,0.00
2018-10-12T04:25:46.547Z,0.00
2018-10-12T04:26:46.840Z,0.00
2018-10-12T04:27:47.104Z,0.00
2018-10-12T04:28:47.535Z,0.00
2018-10-12T04:29:47.804Z,0.00
2018-10-12T04:30:48.312Z,0.00
2018-10-12T04:31:48.364Z,0.00
2018-10-12T04:32:48.427Z,0.00
2018-10-12T04:33:48.477Z,0.00
2018-10-12T04:34:48.627Z,0.00
2018-10-12T04:36:48.655Z,0.00
2018-10-12T04:37:48.817Z,0.00
2018-10-12T04:38:48.910Z,0.00
2018-10-12T04:39:49.245Z,0.00
2018-10-12T04:40:49.335Z,0.00
2018-10-12T04:41:49.528Z,0.00
2018-10-12T04:42:49.617Z,0.00
2018-10-12T04:43:49.738Z,0.00
2018-10-12T04:44:49.997Z,0.00
2018-10-12T04:45:50.161Z,0.00
2018-10-12T04:46:50.330Z,0.00
2018-10-12T04:47:50.473Z,0.00
2018-10-12T04:48:50.599Z,0.00
2018-10-12T04:49:50.974Z,0.00
2018-10-12T04:50:51.120Z,0.00
2018-10-12T04:51:51.246Z,0.00
2018-10-12T04:52:51.366Z,0.00
2018-10-12T04:53:51.533Z,0.00
2018-10-12T04:54:51.620Z,0.00
2018-10-12T04:55:51.796Z,0.00
2018-10-12T04:56:52.213Z,0.00
2018-10-12T04:57:52.364Z,0.00
2018-10-12T04:58:52.448Z,0.00
2018-10-12T04:59:52.520Z,0.00
2018-10-12T05:00:52.765Z,0.00
2018-10-12T05:01:52.715Z,0.00
2018-10-12T05:02:52.783Z,0.00
2018-10-12T05:03:52.859Z,0.00
2018-10-12T05:04:52.909Z,1.00
2018-10-12T05:05:52.971Z,1.00
2018-10-12T05:06:53.025Z,1.00
2018-10-12T05:07:53.212Z,1.00
2018-10-12T05:08:53.165Z,2.00
2018-10-12T05:09:53.266Z,1.00
2018-10-12T05:10:53.357Z,2.00
2018-10-12T05:11:53.111Z,2.00
2018-10-12T05:12:53.732Z,3.00
2018-10-12T05:13:53.809Z,4.00
2018-10-12T05:14:53.880Z,5.00
2018-10-12T05:15:53.829Z,6.00
2018-10-12T05:16:54.162Z,7.00
2018-10-12T05:17:54.442Z,8.00
2018-10-12T05:18:54.740Z,9.00
2018-10-12T05:19:54.994Z,12.00
2018-10-12T05:20:55.541Z,14.00
2018-10-12T05:21:55.493Z,17.00
2018-10-12T05:22:55.994Z,20.00
2018-10-12T05:23:56.004Z,24.00
2018-10-12T05:24:56.529Z,28.00
2018-10-12T05:25:56.323Z,33.00
2018-10-12T05:26:56.702Z,38.00
2018-10-12T05:27:57.100Z,45.00
2018-10-12T05:28:57.462Z,53.00
2018-10-12T05:29:57.786Z,60.00
2018-10-12T05:30:58.009Z,69.00
2018-10-12T05:31:58.269Z,79.00
2018-10-12T05:32:58.867Z,89.00
2018-10-12T05:33:58.637Z,102.00
2018-10-12T05:34:59.160Z,117.00
2018-10-12T05:35:58.994Z,134.00
2018-10-12T05:36:59.252Z,151.00
2018-10-12T05:37:59.625Z,169.00
2018-10-12T05:38:59.610Z,187.00
2018-10-12T05:39:59.884Z,203.00
2018-10-12T05:41:00.158Z,214.00
2018-10-12T05:42:00.510Z,228.00
2018-10-12T05:43:01.055Z,247.00
2018-10-12T05:44:00.826Z,267.00
2018-10-12T05:45:00.952Z,294.00
2018-10-12T05:46:01.311Z,319.00
2018-10-12T05:47:01.682Z,346.00
2018-10-12T05:48:02.147Z,373.00
2018-10-12T05:49:02.409Z,396.00
2018-10-12T05:50:02.738Z,421.00
2018-10-12T05:51:02.703Z,449.00
2018-10-12T05:52:03.526Z,480.00
2018-10-12T05:53:03.691Z,516.00
2018-10-12T05:54:03.870Z,553.00
2018-10-12T05:55:04.000Z,592.00
2018-10-12T05:56:04.416Z,627.00
2018-10-12T05:57:04.785Z,663.00
2018-10-12T05:58:04.850Z,700.00
2018-10-12T05:59:05.036Z,736.00
2018-10-12T06:00:05.175Z,774.00
2018-10-12T06:01:05.409Z,815.00
2018-10-12T06:02:05.480Z,858.00
2018-10-12T06:03:05.708Z,898.00
2018-10-12T06:04:05.824Z,933.00
2018-10-12T06:05:06.408Z,967.00
2018-10-12T06:06:06.369Z,1005.00
2018-10-12T06:07:06.626Z,1043.00
2018-10-12T06:08:06.748Z,1084.00
2018-10-12T06:09:06.916Z,1124.00
2018-10-12T06:10:07.094Z,1156.00
2018-10-12T06:11:07.207Z,1202.00
2018-10-12T06:12:07.177Z,1263.00
2018-10-12T06:13:07.361Z,1339.00
2018-10-12T06:14:07.433Z,1422.00
2018-10-12T06:15:07.509Z,1500.00
2018-10-12T06:16:07.575Z,1578.00
2018-10-12T06:17:07.656Z,1652.00
2018-10-12T06:18:07.710Z,1726.00
2018-10-12T06:19:07.935Z,1805.00
2018-10-12T06:20:08.027Z,1895.00
2018-10-12T06:21:07.914Z,1971.00
2018-10-12T06:22:08.355Z,2055.00
2018-10-12T06:23:08.711Z,2127.00
2018-10-12T06:24:08.458Z,2218.00
2018-10-12T06:25:09.061Z,2320.00
2018-10-12T06:26:09.152Z,2402.00
2018-10-12T06:27:09.188Z,2445.00
2018-10-12T06:28:08.941Z,2454.00
2018-10-12T06:29:09.325Z,2387.00
2018-10-12T06:30:09.585Z,2318.00
2018-10-12T06:31:09.869Z,2261.00
2018-10-12T06:32:10.107Z,2207.00
2018-10-12T06:33:10.394Z,2229.00
2018-10-12T06:34:10.889Z,2215.00
2018-10-12T06:35:11.432Z,2221.00
2018-10-12T06:36:11.207Z,2239.00
2018-10-12T06:37:11.514Z,2261.00
2018-10-12T06:38:11.789Z,2270.00
2018-10-12T06:39:12.083Z,2255.00
2018-10-12T06:40:12.355Z,2239.00
2018-10-12T06:41:12.633Z,2240.00
2018-10-12T06:42:12.902Z,2245.00
2018-10-12T06:43:13.227Z,2274.00
2018-10-12T06:44:13.513Z,2305.00
2018-10-12T06:45:14.014Z,2345.00
2018-10-12T06:46:14.104Z,2387.00
2018-10-12T06:47:14.346Z,2452.00
2018-10-12T06:48:14.349Z,2483.00
2018-10-12T06:49:14.622Z,2579.00
2018-10-12T06:50:14.981Z,2775.00
2018-10-12T06:51:15.256Z,3087.00
2018-10-12T06:52:15.518Z,3241.00
2018-10-12T06:53:15.831Z,3396.00
2018-10-12T06:54:16.130Z,3503.00
2018-10-12T06:55:16.556Z,3565.00
2018-10-12T06:56:16.901Z,3635.00
2018-10-12T06:57:17.182Z,3724.00
2018-10-12T06:58:17.559Z,3849.00
2018-10-12T06:59:17.851Z,3944.00
2018-10-12T07:00:18.441Z,3994.00
2018-10-12T07:01:18.505Z,4030.00
2018-10-12T07:02:18.641Z,4052.00
2018-10-12T07:03:18.723Z,4093.00
2018-10-12T07:04:18.835Z,4138.00
2018-10-12T07:05:19.012Z,4178.00
2018-10-12T07:06:19.159Z,4218.00
2018-10-12T07:07:19.271Z,4215.00
2018-10-12T07:08:19.430Z,4194.00
2018-10-12T07:09:19.572Z,4326.00
2018-10-12T07:10:19.741Z,4340.00
2018-10-12T07:11:19.876Z,4368.00
2018-10-12T07:12:20.053Z,4411.00
2018-10-12T07:13:20.221Z,4468.00
2018-10-12T07:14:20.402Z,4505.00
2018-10-12T07:15:20.567Z,4584.00
2018-10-12T07:16:20.723Z,4636.00
2018-10-12T07:17:20.873Z,4711.00
2018-10-12T07:18:21.050Z,4758.00
2018-10-12T07:19:21.165Z,4806.00
2018-10-12T07:20:21.237Z,4852.00
2018-10-12T07:21:21.279Z,4912.00
2018-10-12T07:22:21.400Z,4973.00
2018-10-12T07:23:21.494Z,5077.00
2018-10-12T07:24:21.615Z,5157.00
2018-10-12T07:25:21.799Z,5200.00
2018-10-12T07:26:21.916Z,5259.00
2018-10-12T07:27:22.024Z,5333.00
2018-10-12T07:28:22.134Z,5488.00
2018-10-12T07:29:22.246Z,5669.00
2018-10-12T07:30:22.389Z,5853.00
2018-10-12T07:31:22.491Z,6009.00
2018-10-12T07:32:22.554Z,6133.00
2018-10-12T07:33:22.629Z,6172.00
2018-10-12T07:34:22.703Z,6069.00
2018-10-12T07:35:22.781Z,5953.00
2018-10-12T07:36:22.862Z,5983.00
2018-10-12T07:37:23.027Z,6169.00
2018-10-12T07:38:23.056Z,6337.00
2018-10-12T07:39:23.315Z,6447.00
2018-10-12T07:40:23.463Z,6527.00
2018-10-12T07:41:23.535Z,6744.00
2018-10-12T07:42:23.698Z,7165.00
2018-10-12T07:43:23.793Z,8814.00
2018-10-12T07:44:23.862Z,65536.00
2018-10-12T07:45:23.941Z,65536.00
2018-10-12T07:46:24.025Z,65536.00
2018-10-12T07:47:24.208Z,65536.00
2018-10-12T07:48:24.128Z,65536.00
2018-10-12T07:49:24.168Z,65536.00
2018-10-12T07:50:24.169Z,65536.00
2018-10-12T07:51:24.470Z,65536.00
2018-10-12T07:52:24.756Z,65536.00
2018-10-12T07:53:25.262Z,65536.00
2018-10-12T07:54:25.493Z,65536.00
2018-10-12T07:55:26.005Z,65536.00
2018-10-12T07:56:26.257Z,65536.00
2018-10-12T07:57:26.529Z,65536.00
2018-10-12T07:58:26.928Z,65536.00
2018-10-12T07:59:27.202Z,65536.00
2018-10-12T08:00:27.516Z,65536.00
2018-10-12T08:01:27.747Z,65536.00
2018-10-12T08:02:28.439Z,65536.00
2018-10-12T08:03:28.413Z,65536.00
2018-10-12T08:04:28.935Z,65536.00
2018-10-12T08:05:28.755Z,65536.00
2018-10-12T08:06:29.048Z,65536.00
2018-10-12T08:07:29.259Z,65536.00
2018-10-12T08:08:29.555Z,65536.00
2018-10-12T08:09:29.863Z,65536.00
2018-10-12T08:10:30.250Z,65536.00
2018-10-12T08:11:30.607Z,65536.00
2018-10-12T08:12:30.887Z,65536.00
2018-10-12T08:13:31.399Z,65536.00
2018-10-12T08:14:31.620Z,65536.00
2018-10-12T08:15:31.916Z,65536.00
2018-10-12T08:16:32.282Z,65536.00
2018-10-12T08:17:32.536Z,65536.00
2018-10-12T08:18:32.822Z,65536.00
2018-10-12T08:19:33.347Z,65536.00
2018-10-12T08:20:34.164Z,65536.00
2018-10-12T08:21:34.062Z,65536.00
2018-10-12T08:22:34.251Z,9565.00
2018-10-12T08:23:34.375Z,8892.00
2018-10-12T08:24:34.436Z,8571.00
2018-10-12T08:25:34.590Z,8482.00
2018-10-12T08:26:34.797Z,8480.00
2018-10-12T08:27:34.965Z,8562.00
2018-10-12T08:29:35.184Z,9186.00
2018-10-12T08:30:35.340Z,65536.00
2018-10-12T08:31:35.534Z,65536.00
2018-10-12T08:32:35.654Z,65536.00
2018-10-12T08:33:35.886Z,65536.00
2018-10-12T08:34:35.949Z,65536.00
2018-10-12T08:35:36.053Z,65536.00
2018-10-12T08:36:36.133Z,65536.00
2018-10-12T08:37:36.490Z,65536.00
2018-10-12T08:38:36.576Z,65536.00
2018-10-12T08:39:36.671Z,65536.00
2018-10-12T08:40:36.795Z,65536.00
2018-10-12T08:41:36.976Z,65536.00
2018-10-12T08:42:37.118Z,65536.00
2018-10-12T08:43:37.266Z,65536.00
2018-10-12T08:44:37.377Z,65536.00
2018-10-12T08:45:37.468Z,65536.00
2018-10-12T08:46:37.556Z,65536.00
2018-10-12T08:47:37.644Z,65536.00
2018-10-12T08:48:37.714Z,65536.00
2018-10-12T08:49:37.798Z,65536.00
2018-10-12T08:50:37.867Z,65536.00
2018-10-12T08:51:37.936Z,65536.00
2018-10-12T08:52:37.996Z,65536.00
2018-10-12T08:53:38.061Z,65536.00
2018-10-12T08:54:38.142Z,65536.00
2018-10-12T08:55:38.262Z,65536.00
2018-10-12T08:56:38.301Z,65536.00
2018-10-12T08:57:38.525Z,65536.00
2018-10-12T08:58:38.612Z,65536.00
2018-10-12T08:59:38.693Z,65536.00
2018-10-12T09:00:38.764Z,65536.00
2018-10-12T09:01:38.833Z,65536.00
2018-10-12T09:02:38.874Z,65536.00
2018-10-12T09:03:38.684Z,65536.00
2018-10-12T09:04:39.434Z,65536.00
2018-10-12T09:05:39.462Z,65536.00
2018-10-12T09:06:39.330Z,65536.00
2018-10-12T09:07:39.680Z,65536.00
2018-10-12T09:08:39.997Z,65536.00
2018-10-12T09:09:40.363Z,65536.00
2018-10-12T09:10:40.808Z,65536.00
2018-10-12T09:11:41.116Z,65536.00
2018-10-12T09:12:41.370Z,65536.00
2018-10-12T09:13:41.647Z,65536.00
2018-10-12T09:14:42.108Z,14569.00
2018-10-12T09:15:42.515Z,15961.00
2018-10-12T09:16:43.009Z,17156.00
2018-10-12T09:17:43.283Z,12067.00
2018-10-12T09:18:43.680Z,10792.00
2018-10-12T09:19:43.962Z,8058.00
2018-10-12T09:20:44.314Z,8232.00
2018-10-12T09:21:44.532Z,8787.00
2018-10-12T09:22:44.966Z,8456.00
2018-10-12T09:23:45.430Z,7601.00
2018-10-12T09:24:46.017Z,8053.00
2018-10-12T09:25:45.796Z,7711.00
2018-10-12T09:26:46.094Z,8018.00
2018-10-12T09:27:46.347Z,10163.00
2018-10-12T09:28:46.639Z,11120.00
2018-10-12T09:29:46.960Z,12085.00
2018-10-12T09:30:46.956Z,8855.00
2018-10-12T09:31:47.220Z,9302.00
2018-10-12T09:32:47.489Z,8445.00
2018-10-12T09:33:47.779Z,7526.00
2018-10-12T09:34:48.605Z,7445.00
2018-10-12T09:35:48.716Z,7391.00
2018-10-12T09:36:48.868Z,7437.00
2018-10-12T09:37:48.962Z,7432.00
2018-10-12T09:38:49.094Z,7447.00
2018-10-12T09:39:49.214Z,7770.00
2018-10-12T09:40:49.328Z,9234.00
2018-10-12T09:41:49.534Z,9526.00
2018-10-12T09:42:49.683Z,7909.00
2018-10-12T09:43:49.833Z,7507.00
2018-10-12T09:44:50.063Z,7673.00
2018-10-12T09:45:50.200Z,8723.00
2018-10-12T09:46:50.365Z,7976.00
2018-10-12T09:47:50.533Z,7419.00
2018-10-12T09:48:50.687Z,7290.00
2018-10-12T09:49:50.811Z,7178.00
2018-10-12T09:50:50.923Z,7222.00
2018-10-12T09:51:51.044Z,8113.00
2018-10-12T09:52:51.144Z,7576.00
2018-10-12T09:53:51.304Z,7347.00
2018-10-12T09:54:51.429Z,7519.00
2018-10-12T09:55:51.592Z,7403.00
2018-10-12T09:56:51.660Z,7533.00
2018-10-12T09:57:51.882Z,7511.00
2018-10-12T09:58:52.008Z,7287.00
2018-10-12T09:59:52.146Z,7847.00
2018-10-12T10:00:52.510Z,7789.00
2018-10-12T10:01:52.828Z,7554.00
2018-10-12T10:02:52.928Z,8005.00
2018-10-12T10:03:52.839Z,8020.00
2018-10-12T10:04:53.575Z,7832.00
2018-10-12T10:05:54.109Z,7291.00
2018-10-12T10:06:54.285Z,7280.00
2018-10-12T10:07:54.419Z,7245.00
2018-10-12T10:08:54.789Z,7355.00
2018-10-12T10:09:55.132Z,7560.00
2018-10-12T10:10:55.402Z,7345.00
2018-10-12T10:11:55.671Z,7419.00
2018-10-12T10:12:55.833Z,7212.00
2018-10-12T10:14:56.486Z,7172.00
2018-10-12T10:15:56.254Z,7165.00
2018-10-12T10:16:56.601Z,7073.00
2018-10-12T10:17:56.953Z,6979.00
2018-10-12T10:18:57.213Z,7065.00
2018-10-12T10:19:57.474Z,7342.00
2018-10-12T10:20:57.686Z,8494.00
2018-10-12T10:21:57.965Z,9194.00
2018-10-12T10:22:58.222Z,8466.00
2018-10-12T10:23:58.517Z,7348.00
2018-10-12T10:24:59.037Z,7427.00
2018-10-12T10:25:59.313Z,7224.00
2018-10-12T10:26:59.608Z,7133.00
2018-10-12T10:27:59.879Z,7117.00
2018-10-12T10:29:00.316Z,7108.00
2018-10-12T10:30:00.609Z,7095.00
2018-10-12T10:32:00.953Z,7254.00
2018-10-12T10:33:01.231Z,7216.00
2018-10-12T10:34:01.496Z,7234.00
2018-10-12T10:35:01.882Z,8113.00
2018-10-12T10:36:02.227Z,8557.00
2018-10-12T10:37:02.627Z,8430.00
2018-10-12T10:38:02.738Z,9814.00
2018-10-12T10:39:03.149Z,12874.00
2018-10-12T10:40:03.456Z,12124.00
2018-10-12T10:41:03.638Z,9277.00
2018-10-12T10:42:03.795Z,11229.00
2018-10-12T10:43:03.943Z,13780.00
2018-10-12T10:44:04.051Z,14097.00
2018-10-12T10:45:04.242Z,12034.00
2018-10-12T10:46:04.373Z,12086.00
2018-10-12T10:47:04.523Z,14551.00
2018-10-12T10:48:04.722Z,10592.00
2018-10-12T10:49:04.938Z,10313.00
2018-10-12T10:50:05.067Z,9860.00
2018-10-12T10:51:05.245Z,9618.00
2018-10-12T10:52:05.439Z,8010.00
2018-10-12T10:53:05.568Z,7175.00
2018-10-12T10:54:05.764Z,8246.00
2018-10-12T10:55:05.869Z,11825.00
2018-10-12T10:56:06.019Z,10730.00
2018-10-12T10:57:06.168Z,9943.00
2018-10-12T10:58:06.370Z,8847.00
2018-10-12T10:59:06.421Z,11432.00
2018-10-12T11:00:06.535Z,65536.00
2018-10-12T11:01:06.728Z,13671.00
2018-10-12T11:02:06.856Z,10537.00
2018-10-12T11:03:07.045Z,8748.00
2018-10-12T11:04:07.140Z,7058.00
2018-10-12T11:05:07.441Z,7093.00
2018-10-12T11:06:07.259Z,7172.00
2018-10-12T11:07:07.781Z,7284.00
2018-10-12T11:08:07.838Z,7394.00
2018-10-12T11:09:07.908Z,7191.00
2018-10-12T11:10:08.149Z,7237.00
2018-10-12T11:11:08.748Z,7889.00
2018-10-12T11:12:08.754Z,10152.00
2018-10-12T11:13:09.333Z,8431.00
2018-10-12T11:14:09.346Z,7612.00
2018-10-12T11:15:09.362Z,7843.00
2018-10-12T11:16:09.109Z,9564.00
2018-10-12T11:17:09.524Z,9768.00
2018-10-12T11:18:09.780Z,9777.00
2018-10-12T11:19:10.042Z,10984.00
2018-10-12T11:21:10.330Z,65536.00
2018-10-12T11:22:10.618Z,65536.00
2018-10-12T11:23:10.886Z,65536.00
2018-10-12T11:25:11.174Z,65536.00
2018-10-12T11:26:11.553Z,65536.00
2018-10-12T11:27:11.873Z,65536.00
2018-10-12T11:28:12.170Z,65536.00
2018-10-12T11:29:12.462Z,65536.00
2018-10-12T11:30:12.863Z,65536.00
2018-10-12T11:31:13.144Z,65536.00
2018-10-12T11:32:13.430Z,65536.00
2018-10-12T11:33:13.707Z,65536.00
2018-10-12T11:34:14.059Z,65536.00
2018-10-12T11:35:14.743Z,65536.00
2018-10-12T11:36:14.555Z,65536.00
2018-10-12T11:37:14.859Z,65536.00
2018-10-12T11:38:15.182Z,65536.00
2018-10-12T11:39:15.393Z,65536.00
2018-10-12T11:40:15.972Z,65536.00
2018-10-12T11:41:15.808Z,65536.00
2018-10-12T11:42:16.104Z,65536.00
2018-10-12T11:43:16.425Z,65536.00
2018-10-12T11:44:16.747Z,65536.00
2018-10-12T11:45:17.345Z,65536.00
2018-10-12T11:46:17.281Z,65536.00
2018-10-12T11:47:17.540Z,65536.00
2018-10-12T11:48:17.806Z,65536.00
2018-10-12T11:49:18.327Z,65536.00
2018-10-12T11:50:18.947Z,65536.00
2018-10-12T11:51:19.150Z,65536.00
2018-10-12T11:52:19.805Z,65536.00
2018-10-12T11:53:19.476Z,65536.00
2018-10-12T11:54:19.880Z,65536.00
2018-10-12T11:55:20.098Z,65536.00
2018-10-12T11:56:20.256Z,65536.00
2018-10-12T11:57:20.405Z,65536.00
2018-10-12T11:58:20.543Z,65536.00
2018-10-12T11:59:20.749Z,65536.00
2018-10-12T12:00:21.238Z,65536.00
2018-10-12T12:01:21.344Z,65536.00
2018-10-12T12:02:21.551Z,65536.00
2018-10-12T12:03:21.568Z,65536.00
2018-10-12T12:04:21.404Z,65536.00
2018-10-12T12:05:22.078Z,65536.00
2018-10-12T12:06:22.096Z,65536.00
2018-10-12T12:07:22.366Z,65536.00
2018-10-12T12:08:22.337Z,65536.00
2018-10-12T12:09:22.420Z,65536.00
2018-10-12T12:10:22.510Z,65536.00
2018-10-12T12:11:22.591Z,65536.00
2018-10-12T12:12:22.665Z,65536.00
2018-10-12T12:13:22.801Z,65536.00
2018-10-12T12:14:22.775Z,65536.00
2018-10-12T12:15:22.853Z,65536.00
2018-10-12T12:16:22.918Z,65536.00
2018-10-12T12:17:23.019Z,65536.00
2018-10-12T12:18:23.092Z,65536.00
2018-10-12T12:19:23.231Z,65536.00
2018-10-12T12:20:22.925Z,65536.00
2018-10-12T12:21:23.499Z,65536.00
2018-10-12T12:22:23.571Z,65536.00
2018-10-12T12:23:23.707Z,65536.00
2018-10-12T12:24:23.782Z,65536.00
2018-10-12T12:25:23.982Z,65536.00
2018-10-12T12:26:23.878Z,65536.00
2018-10-12T12:27:23.900Z,65536.00
2018-10-12T12:28:24.205Z,65536.00
2018-10-12T12:29:24.613Z,65536.00
2018-10-12T12:30:24.878Z,65536.00
2018-10-12T12:31:25.317Z,65536.00
2018-10-12T12:32:25.771Z,65536.00
2018-10-12T12:33:26.117Z,65536.00
2018-10-12T12:34:26.434Z,65536.00
2018-10-12T12:35:27.416Z,65536.00
2018-10-12T12:36:26.779Z,65536.00
2018-10-12T12:37:27.050Z,65536.00
2018-10-12T12:38:27.547Z,65536.00
2018-10-12T12:39:27.848Z,65536.00
2018-10-12T12:40:28.125Z,65536.00
2018-10-12T12:41:28.466Z,65536.00
2018-10-12T12:42:28.720Z,65536.00